SIN weather

Singapore Changi Airport
Singapore, South East, Singapore

Public forecast

Using degrees Celsius for public forecast. Weather courtesy of forecast.io.

METAR (pilot weather report)

Retrieved 2018/12/19 15:30 UTC (0 seconds ago):

WSSS 191530Z 36003KT 290V040 9999 FEW018 BKN300 26/23 Q1013 NOSIG

TAF (pilot weather forecast)

Forecast is more than 6 hours old.

Retrieved 2018/12/19 06:12 UTC (9 hours ago):

TAF WSSS 190500Z 1906/2012 01007KT 9999 FEW015CB SCT020 TEMPO 1906/1909 3000 TSRA FEW012CB BKN015